createdAt,value
2022-09-23T00:02:54.798Z,1.50
2022-09-23T00:06:05.305Z,1.23
2022-09-23T00:09:07.416Z,1.05
2022-09-23T00:12:10.358Z,1.48
2022-09-23T00:15:12.567Z,1.35
2022-09-23T00:18:14.999Z,1.40
2022-09-23T00:21:18.220Z,1.27
2022-09-23T00:24:20.517Z,1.27
2022-09-23T00:27:22.720Z,1.27
2022-09-23T00:30:25.553Z,1.48
2022-09-23T00:33:27.770Z,1.40
2022-09-23T00:36:32.305Z,1.40
2022-09-23T00:39:34.404Z,1.30
2022-09-23T00:42:36.504Z,1.30
2022-09-23T00:45:39.832Z,1.50
2022-09-23T00:48:44.157Z,1.40
2022-09-23T00:51:54.462Z,1.40
2022-09-23T00:54:58.943Z,1.30
2022-09-23T00:58:04.409Z,1.45
2022-09-23T01:01:06.727Z,1.75
2022-09-23T01:04:10.010Z,1.50
2022-09-23T01:07:12.707Z,1.08
2022-09-23T01:10:17.179Z,1.40
2022-09-23T01:13:45.139Z,1.42
2022-09-23T01:17:04.061Z,1.20
2022-09-23T01:20:12.824Z,1.40
2022-09-23T01:23:20.949Z,1.10
2022-09-23T01:26:57.835Z,1.20
2022-09-23T01:30:12.526Z,1.55
2022-09-23T01:33:29.678Z,1.30
2022-09-23T01:36:47.368Z,1.25
2022-09-23T01:40:03.939Z,1.25
2022-09-23T01:43:34.695Z,1.20
2022-09-23T01:46:56.946Z,1.00
2022-09-23T01:50:28.987Z,1.50
2022-09-23T01:53:49.853Z,1.15
2022-09-23T01:57:04.618Z,1.10
2022-09-23T02:00:13.695Z,1.23
2022-09-23T02:03:21.188Z,1.08
2022-09-23T02:06:30.155Z,1.00
2022-09-23T02:09:37.739Z,1.30
2022-09-23T02:12:44.137Z,1.20
2022-09-23T02:15:53.180Z,1.05
2022-09-23T02:19:11.654Z,1.15
2022-09-23T02:22:49.162Z,1.15
2022-09-23T02:26:03.026Z,1.10
2022-09-23T02:29:28.407Z,1.08
2022-09-23T02:32:44.499Z,1.40
2022-09-23T02:35:55.664Z,1.30
2022-09-23T02:39:02.796Z,1.30
2022-09-23T02:42:10.170Z,1.10
2022-09-23T02:45:12.297Z,1.42
2022-09-23T02:48:31.808Z,1.20
2022-09-23T02:51:38.277Z,1.17
2022-09-23T02:54:41.136Z,0.90
2022-09-23T02:57:43.513Z,1.25
2022-09-23T03:00:57.095Z,1.40
2022-09-23T03:04:05.179Z,0.98
2022-09-23T03:07:27.717Z,1.38
2022-09-23T03:10:39.204Z,1.15
2022-09-23T03:14:07.283Z,1.20
2022-09-23T03:17:20.902Z,1.52
2022-09-23T03:20:37.801Z,1.40
2022-09-23T03:23:41.244Z,0.95
2022-09-23T03:26:47.571Z,0.90
2022-09-23T03:29:53.467Z,0.95
2022-09-23T03:33:00.252Z,1.40
2022-09-23T03:36:27.682Z,1.10
2022-09-23T03:39:32.883Z,1.38
2022-09-23T03:42:37.356Z,1.10
2022-09-23T03:45:40.201Z,1.25
2022-09-23T03:48:42.333Z,1.42
2022-09-23T03:51:44.877Z,1.38
2022-09-23T03:54:47.741Z,1.38
2022-09-23T03:57:49.985Z,1.25
2022-09-23T04:00:54.877Z,1.25
2022-09-23T04:03:57.077Z,1.33
2022-09-23T04:06:59.177Z,1.30
2022-09-23T04:10:01.323Z,1.50
2022-09-23T04:13:03.430Z,1.30
2022-09-23T04:16:05.781Z,1.20
2022-09-23T04:19:11.672Z,1.58
2022-09-23T04:22:14.089Z,2.00
2022-09-23T04:25:16.285Z,1.60
2022-09-23T04:28:18.390Z,2.05
2022-09-23T04:31:22.544Z,1.60
2022-09-23T04:34:24.673Z,1.80
2022-09-23T04:37:26.796Z,1.65
2022-09-23T04:40:29.115Z,1.30
2022-09-23T04:43:31.366Z,2.10
2022-09-23T04:46:34.285Z,1.30
2022-09-23T04:49:36.527Z,1.50
2022-09-23T04:52:38.679Z,1.30
2022-09-23T04:55:42.232Z,1.27
2022-09-23T04:58:46.445Z,1.30
2022-09-23T05:01:48.753Z,1.50
2022-09-23T05:04:51.151Z,1.10
2022-09-23T05:07:55.107Z,1.20
2022-09-23T05:11:02.197Z,0.77
2022-09-23T05:14:04.362Z,1.05
2022-09-23T05:17:06.627Z,1.00
2022-09-23T05:20:09.884Z,0.90
2022-09-23T05:23:12.487Z,1.77
2022-09-23T05:26:15.409Z,2.00
2022-09-23T05:29:17.775Z,2.00
2022-09-23T05:32:20.450Z,1.90
2022-09-23T05:35:22.532Z,1.30
2022-09-23T05:38:24.731Z,1.98
2022-09-23T05:41:27.380Z,1.80
2022-09-23T05:44:29.901Z,1.63
2022-09-23T05:47:32.031Z,1.70
2022-09-23T05:50:34.177Z,1.80
2022-09-23T05:53:37.180Z,1.90
2022-09-23T05:56:39.582Z,1.98
2022-09-23T05:59:42.541Z,1.60
2022-09-23T06:02:44.723Z,1.67
2022-09-23T06:05:48.544Z,1.92
2022-09-23T06:08:50.981Z,1.60
2022-09-23T06:11:53.082Z,1.45
2022-09-23T06:14:55.192Z,1.65
2022-09-23T06:17:57.267Z,1.80
2022-09-23T06:21:04.240Z,1.73
2022-09-23T06:24:07.882Z,1.40
2022-09-23T06:27:10.398Z,1.52
2022-09-23T06:30:12.991Z,1.70
2022-09-23T06:33:15.478Z,1.40
2022-09-23T06:36:36.992Z,1.45
2022-09-23T06:39:40.098Z,1.40
2022-09-23T06:42:43.226Z,0.95
2022-09-23T06:45:45.378Z,1.50
2022-09-23T06:48:49.210Z,1.38
2022-09-23T06:51:51.288Z,1.50
2022-09-23T06:54:53.463Z,1.50
2022-09-23T06:57:58.091Z,1.40
2022-09-23T07:01:07.418Z,1.20
2022-09-23T07:04:10.881Z,1.87
2022-09-23T07:07:14.275Z,1.40
2022-09-23T07:10:17.005Z,1.45
2022-09-23T07:13:19.279Z,1.65
2022-09-23T07:16:21.508Z,1.58
2022-09-23T07:19:24.527Z,1.52
2022-09-23T07:22:26.930Z,1.85
2022-09-23T07:25:29.332Z,1.80
2022-09-23T07:28:32.351Z,1.98
2022-09-23T07:31:39.530Z,1.90
2022-09-23T07:34:43.275Z,1.60
2022-09-23T07:37:46.271Z,2.20
2022-09-23T07:40:49.230Z,2.35
2022-09-23T07:43:52.794Z,2.08
2022-09-23T07:46:54.897Z,2.53
2022-09-23T07:49:57.040Z,2.28
2022-09-23T07:52:59.314Z,2.42
2022-09-23T07:56:01.927Z,2.70
2022-09-23T07:59:05.688Z,3.22
2022-09-23T08:02:10.313Z,2.75
2022-09-23T08:05:12.498Z,3.22
2022-09-23T08:08:14.739Z,3.60
2022-09-23T08:11:17.229Z,3.05
2022-09-23T08:14:20.242Z,3.28
2022-09-23T08:17:22.364Z,2.72
2022-09-23T08:20:47.979Z,3.00
2022-09-23T08:23:51.908Z,2.60
2022-09-23T08:26:55.098Z,2.78
2022-09-23T08:29:57.239Z,2.53
2022-09-23T08:32:59.336Z,2.72
2022-09-23T08:36:03.087Z,2.28
2022-09-23T08:39:06.376Z,1.92
2022-09-23T08:42:30.544Z,2.58
2022-09-23T08:45:35.023Z,2.45
2022-09-23T08:48:43.456Z,2.22
2022-09-23T08:51:47.523Z,2.63
2022-09-23T08:54:54.540Z,2.38
2022-09-23T08:58:23.909Z,1.98
2022-09-23T09:01:49.285Z,1.85
2022-09-23T09:05:06.297Z,2.20
2022-09-23T09:08:11.398Z,2.00
2022-09-23T09:11:16.619Z,1.60
2022-09-23T09:14:54.267Z,2.17
2022-09-23T09:18:06.501Z,2.10
2022-09-23T09:21:14.737Z,2.03
2022-09-23T09:24:32.307Z,1.83
2022-09-23T09:27:38.396Z,1.77
2022-09-23T09:30:43.156Z,2.08
2022-09-23T09:34:00.155Z,1.30
2022-09-23T09:37:15.299Z,1.67
2022-09-23T09:40:18.124Z,1.80
2022-09-23T09:43:23.344Z,1.60
2022-09-23T09:46:33.214Z,1.70
2022-09-23T09:49:45.648Z,1.38
2022-09-23T09:52:56.208Z,1.33
2022-09-23T09:56:03.746Z,1.20
2022-09-23T09:59:18.271Z,1.42
2022-09-23T10:02:35.868Z,1.48
2022-09-23T10:05:48.437Z,1.55
2022-09-23T10:09:30.330Z,1.25
2022-09-23T10:12:47.659Z,1.55
2022-09-23T10:15:54.815Z,1.65
2022-09-23T10:18:57.737Z,1.08
2022-09-23T10:22:04.940Z,1.40
2022-09-23T10:25:19.322Z,1.35
2022-09-23T10:28:31.531Z,1.00
2022-09-23T10:31:35.745Z,1.20
2022-09-23T10:34:43.638Z,1.48
2022-09-23T10:37:45.676Z,1.23
2022-09-23T10:41:06.553Z,1.15
2022-09-23T10:44:58.576Z,0.98
2022-09-23T10:48:34.198Z,0.98
2022-09-23T10:52:09.782Z,1.00
2022-09-23T10:55:40.721Z,0.77
2022-09-23T10:58:50.482Z,1.10
2022-09-23T11:02:13.296Z,1.00
2022-09-23T11:05:27.234Z,1.05
2022-09-23T11:08:38.766Z,1.30
2022-09-23T11:11:45.509Z,1.08
2022-09-23T11:15:00.175Z,1.30
2022-09-23T11:18:29.240Z,1.10
2022-09-23T11:22:08.396Z,1.10
2022-09-23T11:25:35.235Z,0.90
2022-09-23T11:28:42.479Z,0.85
2022-09-23T11:31:47.605Z,1.20
2022-09-23T11:35:18.032Z,1.30
2022-09-23T11:38:29.240Z,1.30
2022-09-23T11:41:37.971Z,0.90
2022-09-23T11:44:45.052Z,1.10
2022-09-23T11:47:58.088Z,0.93
2022-09-23T11:51:05.039Z,0.95
2022-09-23T11:54:29.439Z,1.20
2022-09-23T11:57:49.005Z,1.02
2022-09-23T12:01:04.097Z,1.10
2022-09-23T12:04:21.058Z,0.80
2022-09-23T12:07:45.218Z,1.10
2022-09-23T12:11:30.555Z,1.00
2022-09-23T12:14:52.670Z,1.10
2022-09-23T12:18:23.339Z,0.77
2022-09-23T12:21:49.790Z,1.05
2022-09-23T12:25:23.299Z,1.05
2022-09-23T12:28:28.339Z,0.70
2022-09-23T12:31:40.337Z,1.00
2022-09-23T12:34:52.228Z,1.08
2022-09-23T12:37:55.851Z,1.00
2022-09-23T12:41:00.785Z,0.90
2022-09-23T12:44:16.495Z,1.08
2022-09-23T12:47:26.549Z,1.00
2022-09-23T12:53:59.420Z,0.98
2022-09-23T12:57:03.975Z,1.10
2022-09-23T13:00:10.780Z,1.00
2022-09-23T13:03:32.318Z,1.05
2022-09-23T13:06:56.688Z,0.93
2022-09-23T13:10:34.341Z,1.00
2022-09-23T13:13:41.175Z,0.95
2022-09-23T13:16:45.791Z,1.08
2022-09-23T13:20:02.275Z,0.90
2022-09-23T13:23:23.339Z,1.00
2022-09-23T13:26:25.619Z,1.27
2022-09-23T13:29:36.956Z,1.00
2022-09-23T13:32:45.451Z,1.05
2022-09-23T13:35:51.560Z,1.45
2022-09-23T13:38:53.864Z,1.15
2022-09-23T13:42:01.068Z,1.10
2022-09-23T13:45:03.299Z,0.90
2022-09-23T13:48:10.670Z,1.23
2022-09-23T13:51:22.097Z,1.23
2022-09-23T13:54:49.380Z,1.00
2022-09-23T13:57:59.257Z,1.10
2022-09-23T14:01:01.541Z,1.17
2022-09-23T14:04:03.753Z,1.00
2022-09-23T14:07:08.690Z,1.10
2022-09-23T14:10:19.066Z,1.10
2022-09-23T14:13:26.014Z,1.00
2022-09-23T14:16:29.645Z,1.10
2022-09-23T14:19:32.577Z,1.00
2022-09-23T14:22:34.910Z,1.00
2022-09-23T14:25:38.782Z,0.95
2022-09-23T14:28:41.204Z,1.10
2022-09-23T14:31:56.906Z,1.33
2022-09-23T14:35:05.150Z,1.13
2022-09-23T14:38:26.022Z,1.13
2022-09-23T14:41:28.245Z,1.20
2022-09-23T14:44:33.352Z,1.20
2022-09-23T14:47:35.955Z,1.05
2022-09-23T14:50:43.661Z,0.80
2022-09-23T14:53:46.758Z,0.82
2022-09-23T14:56:49.371Z,1.10
2022-09-23T14:59:55.026Z,0.80
2022-09-23T15:03:13.018Z,0.90
2022-09-23T15:06:15.531Z,0.80
2022-09-23T15:09:39.518Z,0.80
2022-09-23T15:12:43.148Z,0.90
2022-09-23T15:15:46.067Z,1.00
2022-09-23T15:18:55.639Z,1.00
2022-09-23T15:21:58.431Z,0.80
2022-09-23T15:25:41.486Z,0.80
2022-09-23T15:28:44.778Z,1.08
2022-09-23T15:31:47.095Z,0.98
2022-09-23T15:34:50.608Z,0.90
2022-09-23T15:37:57.195Z,0.70
2022-09-23T15:40:59.449Z,0.90
2022-09-23T15:44:15.958Z,0.73
2022-09-23T15:47:18.857Z,0.90
2022-09-23T15:50:21.053Z,0.85
2022-09-23T15:53:28.071Z,1.00
2022-09-23T15:56:30.248Z,1.10
2022-09-23T15:59:33.110Z,1.05
2022-09-23T16:02:36.000Z,0.90
2022-09-23T16:05:40.162Z,1.10
2022-09-23T16:08:42.449Z,1.00
2022-09-23T16:11:49.749Z,0.88
2022-09-23T16:14:51.854Z,0.70
2022-09-23T16:17:55.422Z,1.00
2022-09-23T16:20:59.267Z,0.90
2022-09-23T16:24:01.768Z,0.70
2022-09-23T16:27:07.900Z,0.80
2022-09-23T16:30:10.986Z,0.80
2022-09-23T16:33:13.110Z,0.70
2022-09-23T16:36:27.066Z,0.80
2022-09-23T16:39:29.162Z,0.73
2022-09-23T16:42:31.277Z,0.80
2022-09-23T16:45:33.583Z,0.70
2022-09-23T16:48:40.638Z,0.73
2022-09-23T16:51:42.886Z,1.08
2022-09-23T16:54:48.110Z,1.30
2022-09-23T16:57:50.331Z,1.55
2022-09-23T17:01:16.438Z,1.20
2022-09-23T17:04:19.737Z,1.00
2022-09-23T17:07:21.818Z,0.90
2022-09-23T17:10:24.200Z,1.08
2022-09-23T17:13:27.753Z,1.20
2022-09-23T17:16:36.648Z,1.30
2022-09-23T17:19:41.421Z,1.30
2022-09-23T17:23:04.743Z,1.00
2022-09-23T17:26:09.889Z,1.00
2022-09-23T17:29:12.166Z,1.10
2022-09-23T17:32:14.287Z,1.02
2022-09-23T17:35:16.590Z,0.80
2022-09-23T17:38:18.836Z,1.17
2022-09-23T17:41:21.345Z,0.93
2022-09-23T17:44:41.766Z,1.30
2022-09-23T17:47:44.082Z,1.10
2022-09-23T17:51:02.077Z,1.23
2022-09-23T17:54:04.362Z,1.02
2022-09-23T17:57:06.720Z,1.17
2022-09-23T18:00:10.289Z,1.52
2022-09-23T18:03:15.281Z,1.30
2022-09-23T18:06:19.981Z,1.30
2022-09-23T18:09:28.211Z,1.45
2022-09-23T18:12:30.355Z,1.30
2022-09-23T18:15:37.248Z,1.60
2022-09-23T18:18:39.641Z,1.38
2022-09-23T18:21:48.015Z,1.40
2022-09-23T18:24:50.137Z,1.60
2022-09-23T18:27:52.412Z,1.67
2022-09-23T18:30:55.772Z,2.10
2022-09-23T18:33:59.773Z,2.70
2022-09-23T18:37:03.046Z,2.38
2022-09-23T18:40:11.305Z,3.00
2022-09-23T18:43:19.654Z,2.53
2022-09-23T18:46:24.282Z,2.20
2022-09-23T18:49:45.679Z,2.30
2022-09-23T18:52:48.783Z,2.10
2022-09-23T18:55:52.724Z,1.83
2022-09-23T18:58:58.220Z,2.78
2022-09-23T19:02:03.575Z,2.20
2022-09-23T19:05:07.341Z,2.10
2022-09-23T19:08:09.907Z,1.77
2022-09-23T19:11:13.883Z,2.65
2022-09-23T19:14:18.468Z,2.30
2022-09-23T19:17:22.544Z,2.53
2022-09-23T19:20:27.297Z,2.50
2022-09-23T19:23:40.301Z,2.30
2022-09-23T19:26:45.145Z,2.47
2022-09-23T19:29:51.857Z,2.38
2022-09-23T19:32:54.317Z,2.38
2022-09-23T19:35:58.748Z,3.20
2022-09-23T19:39:22.630Z,1.92
2022-09-23T19:42:27.808Z,2.30
2022-09-23T19:45:34.120Z,2.42
2022-09-23T19:48:36.220Z,3.25
2022-09-23T19:51:40.276Z,2.60
2022-09-23T19:54:43.803Z,3.20
2022-09-23T19:57:47.065Z,2.72
2022-09-23T20:00:50.451Z,2.90
2022-09-23T20:03:55.920Z,2.92
2022-09-23T20:06:59.818Z,3.08
2022-09-23T20:10:02.534Z,2.10
2022-09-23T20:13:05.955Z,2.15
2022-09-23T20:16:12.232Z,3.08
2022-09-23T20:19:17.024Z,3.25
2022-09-23T20:22:30.942Z,3.03
2022-09-23T20:29:17.258Z,3.55
2022-09-23T20:32:33.539Z,3.85
2022-09-23T20:35:35.750Z,3.67
2022-09-23T20:38:39.871Z,3.70
2022-09-23T20:41:43.674Z,3.08
2022-09-23T20:44:48.477Z,3.15
2022-09-23T20:47:51.423Z,4.03
2022-09-23T20:50:53.837Z,3.55
2022-09-23T20:53:57.473Z,3.70
2022-09-23T20:57:18.870Z,3.30
2022-09-23T21:00:21.373Z,3.50
2022-09-23T21:03:25.056Z,3.45
2022-09-23T21:06:27.383Z,4.07
2022-09-23T21:09:32.701Z,2.70
2022-09-23T21:12:35.585Z,2.60
2022-09-23T21:15:38.054Z,2.90
2022-09-23T21:18:40.408Z,3.22
2022-09-23T21:21:43.451Z,2.65
2022-09-23T21:25:25.968Z,2.50
2022-09-23T21:28:08.580Z,2.65
2022-09-23T21:31:13.271Z,2.85
2022-09-23T21:34:16.590Z,3.30
2022-09-23T21:37:19.335Z,3.45
2022-09-23T21:40:44.593Z,3.00
2022-09-23T21:43:47.543Z,2.97
2022-09-23T21:46:52.083Z,3.25
2022-09-23T21:49:54.293Z,3.70
2022-09-23T21:52:57.424Z,2.95
2022-09-23T21:56:04.999Z,3.53
2022-09-23T21:59:08.201Z,3.10
2022-09-23T22:02:10.547Z,2.80
2022-09-23T22:05:12.699Z,3.17
2022-09-23T22:08:14.873Z,2.65
2022-09-23T22:11:38.564Z,2.72
2022-09-23T22:14:41.397Z,2.67
2022-09-23T22:17:43.484Z,3.00
2022-09-23T22:20:48.660Z,3.10
2022-09-23T22:23:57.182Z,3.50
2022-09-23T22:26:59.981Z,3.25
2022-09-23T22:30:31.053Z,3.20
2022-09-23T22:33:33.163Z,2.85
2022-09-23T22:36:38.324Z,3.13
2022-09-23T22:39:40.705Z,3.15
2022-09-23T22:42:43.715Z,3.20
2022-09-23T22:45:50.989Z,3.40
2022-09-23T22:48:53.407Z,2.63
2022-09-23T22:51:55.614Z,3.00
2022-09-23T22:54:57.893Z,3.40
2022-09-23T22:58:15.368Z,3.00
2022-09-23T23:01:23.793Z,3.13
2022-09-23T23:04:26.046Z,3.20
2022-09-23T23:07:28.134Z,3.15
2022-09-23T23:10:30.201Z,3.08
2022-09-23T23:13:32.742Z,3.20
2022-09-23T23:16:35.951Z,3.13
2022-09-23T23:19:38.145Z,2.80
2022-09-23T23:22:40.317Z,2.63
2022-09-23T23:25:42.446Z,2.80
2022-09-23T23:28:44.859Z,2.95
2022-09-23T23:31:47.712Z,2.53
2022-09-23T23:34:49.890Z,2.40
2022-09-23T23:37:52.012Z,2.92
2022-09-23T23:40:56.444Z,2.88
2022-09-23T23:44:00.464Z,2.70
2022-09-23T23:47:02.788Z,2.88
2022-09-23T23:50:05.284Z,2.90
2022-09-23T23:53:08.377Z,2.70
2022-09-23T23:56:13.193Z,2.83
2022-09-23T23:59:15.647Z,2.60
